Time;durP1;ratioP1;P1;durP2;ratioP2;P2;SDS_P1;SDS_P2;PMS_P1;PMS_P2;Temp;Humidity;BMP_temperature;BMP_pressure;BME280_temperature;BME280_humidity;BME280_pressure;Samples;Min_cycle;Max_cycle;Signal;HPM_P1;HPM_P2
2021/11/17 02:26:11;;;;;;;6.13;3.00;;;;;;;0.16;74.24;100278.88;5031085;28;20049;-50
2021/11/17 02:28:59;;;;;;;5.88;3.15;;;;;;;0.29;73.74;100278.28;5024272;28;20036;-49
2021/11/17 02:31:25;;;;;;;6.60;3.47;;;;;;;0.28;74.08;100283.34;5038682;28;20397;-47
2021/11/17 02:34:04;;;;;;;4.55;3.20;;;;;;;0.34;73.35;100281.75;5016907;28;20072;-47
2021/11/17 02:36:40;;;;;;;5.38;3.20;;;;;;;0.45;73.32;100281.06;5032903;28;20049;-46
2021/11/17 02:39:21;;;;;;;5.18;3.40;;;;;;;0.59;72.71;100277.88;5030689;28;20561;-47
2021/11/17 02:42:24;;;;;;;6.47;3.15;;;;;;;0.59;72.69;100282.13;5025366;28;20140;-49
2021/11/17 02:44:59;;;;;;;4.10;2.28;;;;;;;0.61;72.17;100276.22;5013225;28;20037;-52
2021/11/17 02:47:43;;;;;;;4.72;2.80;;;;;;;0.37;72.34;100271.56;5047396;28;20036;-50
2021/11/17 02:50:29;;;;;;;4.95;3.10;;;;;;;0.37;72.65;100275.81;5020813;28;20516;-49
2021/11/17 02:53:20;;;;;;;6.68;3.53;;;;;;;0.51;72.90;100278.63;5016662;28;20042;-48
2021/11/17 02:56:14;;;;;;;5.20;2.75;;;;;;;0.49;72.51;100275.16;5018175;28;20054;-47
2021/11/17 02:59:20;;;;;;;5.60;2.97;;;;;;;0.53;72.43;100275.22;5042383;28;20044;-48
2021/11/17 03:02:10;;;;;;;5.22;3.33;;;;;;;0.48;72.45;100276.00;5009212;28;20064;-47
2021/11/17 03:05:03;;;;;;;7.70;2.85;;;;;;;0.66;72.48;100276.28;5028178;28;20148;-46
2021/11/17 03:07:53;;;;;;;6.60;3.33;;;;;;;0.75;72.21;100269.59;5020893;28;20041;-49
2021/11/17 03:10:31;;;;;;;5.65;2.72;;;;;;;0.81;71.60;100274.81;5033358;28;20124;-50
2021/11/17 03:13:21;;;;;;;5.35;3.10;;;;;;;0.80;71.81;100274.78;5023416;28;20045;-46
2021/11/17 03:16:15;;;;;;;5.55;3.20;;;;;;;0.69;71.56;100274.63;5013590;28;20046;-48
2021/11/17 03:19:00;;;;;;;5.00;2.97;;;;;;;0.34;72.82;100263.84;5026517;28;20046;-46
2021/11/17 03:21:42;;;;;;;5.63;2.95;;;;;;;0.12;73.78;100264.34;5017064;28;20037;-52
2021/11/17 03:24:45;;;;;;;5.53;3.05;;;;;;;0.11;74.34;100262.59;5025704;28;20594;-49
2021/11/17 03:27:17;;;;;;;6.35;3.15;;;;;;;0.15;73.95;100263.53;5012509;28;20033;-46
2021/11/17 03:29:51;;;;;;;7.22;2.92;;;;;;;0.20;74.01;100254.25;5017118;28;20155;-50
2021/11/17 03:32:39;;;;;;;7.25;3.53;;;;;;;0.28;74.06;100266.31;5017881;28;20049;-50
2021/11/17 03:35:33;;;;;;;8.23;3.57;;;;;;;0.29;74.03;100269.72;5021162;28;20041;-51
2021/11/17 03:38:11;;;;;;;3.92;2.25;;;;;;;0.15;74.14;100261.00;5014814;28;20042;-51
2021/11/17 03:41:11;;;;;;;3.92;2.15;;;;;;;0.15;74.09;100255.88;5037439;28;20056;-46
2021/11/17 03:43:40;;;;;;;5.18;3.03;;;;;;;-0.01;75.04;100258.19;5014716;28;20053;-49
2021/11/17 03:46:44;;;;;;;8.40;3.23;;;;;;;0.09;75.28;100250.66;5010590;28;20058;-51
2021/11/17 03:49:35;;;;;;;6.97;3.60;;;;;;;0.09;74.88;100253.22;5033167;28;20049;-47
2021/11/17 03:52:15;;;;;;;6.20;3.65;;;;;;;0.10;75.05;100250.69;5039752;28;20475;-47
2021/11/17 03:55:18;;;;;;;5.90;2.92;;;;;;;0.17;74.49;100252.50;5045952;28;20483;-48
2021/11/17 03:58:09;;;;;;;6.10;3.28;;;;;;;0.10;74.68;100257.50;5042629;28;20045;-49
2021/11/17 04:00:53;;;;;;;6.93;3.92;;;;;;;0.25;74.84;100256.06;5010437;28;20556;-46
2021/11/17 04:03:54;;;;;;;6.10;3.10;;;;;;;0.43;73.72;100250.34;5026044;28;20483;-48
2021/11/17 04:06:22;;;;;;;8.10;3.45;;;;;;;0.42;74.02;100254.59;5009742;28;20041;-48
2021/11/17 04:09:00;;;;;;;6.28;3.53;;;;;;;0.46;73.87;100250.41;5009856;28;20061;-47
2021/11/17 04:11:34;;;;;;;5.70;3.13;;;;;;;0.47;73.74;100249.59;5020699;28;20052;-50
2021/11/17 04:14:00;;;;;;;4.35;1.90;;;;;;;0.48;72.91;100246.16;5025726;28;20046;-46
2021/11/17 04:16:35;;;;;;;5.53;3.30;;;;;;;0.30;73.46;100249.31;5027053;28;20048;-51
2021/11/17 04:19:19;;;;;;;4.68;2.30;;;;;;;0.32;73.61;100252.72;5029917;28;20033;-46
2021/11/17 04:21:51;;;;;;;5.55;3.40;;;;;;;0.34;73.52;100252.78;5027527;28;20162;-53
2021/11/17 04:24:35;;;;;;;5.63;3.38;;;;;;;0.48;73.15;100256.38;5030430;28;20041;-52
2021/11/17 04:27:10;;;;;;;7.53;3.88;;;;;;;0.65;73.05;100256.66;5023381;28;20044;-52
2021/11/17 04:30:05;;;;;;;6.50;3.45;;;;;;;0.76;72.59;100263.66;5026907;28;20041;-49
2021/11/17 04:32:55;;;;;;;6.15;3.10;;;;;;;0.77;72.04;100257.69;5023021;28;20040;-46
2021/11/17 04:35:34;;;;;;;6.97;2.78;;;;;;;0.84;71.83;100253.50;5026661;28;20095;-46
2021/11/17 04:38:09;;;;;;;4.20;2.75;;;;;;;0.92;71.81;100257.03;5027065;28;20052;-51
2021/11/17 04:40:43;;;;;;;4.28;2.45;;;;;;;0.93;71.60;100256.22;5026648;28;20064;-51
2021/11/17 04:43:24;;;;;;;4.32;2.70;;;;;;;0.96;71.19;100261.34;5024615;28;20042;-50
2021/11/17 04:46:08;;;;;;;4.85;2.47;;;;;;;0.99;71.14;100265.66;5025521;28;20041;-47
2021/11/17 04:49:00;;;;;;;5.18;2.83;;;;;;;0.99;71.17;100251.16;5027953;28;20040;-50
2021/11/17 04:51:59;;;;;;;6.70;3.40;;;;;;;1.01;70.73;100261.41;5033568;28;20047;-50
2021/11/17 04:54:28;;;;;;;;;;;;;;;0.82;71.40;100255.19;5013268;28;20062;-48
2021/11/17 04:57:22;;;;;;;5.45;2.80;;;;;;;0.75;71.22;100266.19;5032445;28;19916;-51
2021/11/17 04:59:48;;;;;;;9.07;3.10;;;;;;;0.82;71.55;100250.94;5031821;28;20077;-49
2021/11/17 05:02:39;;;;;;;4.95;3.15;;;;;;;0.88;71.11;100255.28;5032803;28;20045;-47
2021/11/17 05:05:10;;;;;;;4.53;2.67;;;;;;;0.96;71.00;100260.50;5034850;28;20037;-49
2021/11/17 05:08:04;;;;;;;7.72;3.22;;;;;;;0.98;70.77;100263.94;5024989;28;20124;-47
2021/11/17 05:10:42;;;;;;;5.35;2.55;;;;;;;0.82;71.29;100256.06;5040135;28;20481;-50
2021/11/17 05:13:35;;;;;;;3.85;2.40;;;;;;;0.76;71.06;100255.09;5017736;28;20468;-51
2021/11/17 05:16:10;;;;;;;4.13;2.38;;;;;;;0.71;71.38;100257.59;5046014;28;20120;-51
2021/11/17 05:18:56;;;;;;;4.72;2.70;;;;;;;0.57;71.96;100266.78;5031730;28;20041;-48
2021/11/17 05:21:41;;;;;;;4.63;2.65;;;;;;;0.53;71.82;100264.13;5024194;28;20033;-48
2021/11/17 05:24:07;;;;;;;4.10;2.42;;;;;;;0.43;72.46;100255.47;5030727;28;20044;-47
2021/11/17 05:26:51;;;;;;;5.53;2.90;;;;;;;0.52;72.11;100263.31;5052767;28;20037;-49
2021/11/17 05:29:20;;;;;;;5.60;3.00;;;;;;;0.39;72.60;100262.22;5037151;28;20061;-45
2021/11/17 05:31:58;;;;;;;6.90;3.47;;;;;;;0.47;72.97;100257.25;5021528;28;20077;-49
2021/11/17 05:34:24;;;;;;;5.10;3.25;;;;;;;0.60;72.17;100251.47;5012916;28;20037;-48
2021/11/17 05:37:31;;;;;;;7.38;2.88;;;;;;;0.68;72.12;100252.41;5028053;28;20533;-47
2021/11/17 05:40:31;;;;;;;7.63;3.67;;;;;;;0.81;71.76;100248.34;5041766;28;20061;-49
2021/11/17 05:43:13;;;;;;;5.70;3.40;;;;;;;0.93;71.42;100252.78;5018613;28;20037;-49
2021/11/17 05:46:00;;;;;;;10.93;4.50;;;;;;;1.01;71.67;100246.91;5033149;28;20063;-48
2021/11/17 05:48:35;;;;;;;7.43;3.25;;;;;;;1.04;71.16;100249.53;5036894;28;20116;-53
2021/11/17 05:51:27;;;;;;;6.70;3.67;;;;;;;1.10;71.33;100253.88;5021420;28;20516;-47
2021/11/17 05:54:04;;;;;;;12.98;3.35;;;;;;;1.16;71.19;100259.03;5025030;28;20050;-48
2021/11/17 05:57:06;;;;;;;5.88;2.80;;;;;;;0.93;71.15;100256.22;5029567;28;20037;-50
2021/11/17 05:59:38;;;;;;;7.05;3.47;;;;;;;0.97;71.50;100262.22;5030503;28;20061;-49
2021/11/17 06:02:22;;;;;;;9.20;4.00;;;;;;;1.09;71.30;100255.56;5024509;28;20041;-51
2021/11/17 06:04:48;;;;;;;8.25;3.70;;;;;;;1.17;71.15;100253.09;5010003;28;20141;-48
2021/11/17 06:07:13;;;;;;;8.00;3.30;;;;;;;1.03;71.10;100259.75;5027311;28;20140;-48
2021/11/17 06:09:41;;;;;;;5.68;3.72;;;;;;;1.01;71.24;100253.72;5012773;28;20049;-49
2021/11/17 06:12:10;;;;;;;5.35;3.40;;;;;;;1.03;71.50;100250.38;5019052;28;20072;-49
2021/11/17 06:14:38;;;;;;;6.40;3.65;;;;;;;1.11;71.32;100246.19;5026218;28;20049;-48
2021/11/17 06:17:10;;;;;;;7.78;3.78;;;;;;;1.07;71.34;100231.63;5011482;28;20488;-47
2021/11/17 06:19:39;;;;;;;7.93;3.88;;;;;;;1.12;71.19;100244.50;5047045;28;20120;-53
2021/11/17 06:22:06;;;;;;;5.05;2.67;;;;;;;0.93;71.43;100239.97;5031844;28;20052;-50
2021/11/17 06:24:33;;;;;;;10.43;3.85;;;;;;;0.82;72.02;100238.16;5032089;28;20488;-50
2021/11/17 06:27:00;;;;;;;5.97;3.47;;;;;;;0.71;72.08;100243.94;5030938;28;20127;-50
2021/11/17 06:29:32;;;;;;;5.32;2.72;;;;;;;0.60;72.74;100238.69;5012717;28;20046;-51
2021/11/17 06:31:58;;;;;;;6.53;3.40;;;;;;;0.45;72.79;100223.09;5010944;28;20128;-51
2021/11/17 06:34:49;;;;;;;5.90;3.00;;;;;;;0.70;72.22;100242.22;5027454;28;20033;-48
2021/11/17 06:37:20;;;;;;;8.07;3.40;;;;;;;0.77;72.60;100238.91;5012432;28;20414;-48
2021/11/17 06:39:48;;;;;;;5.32;3.25;;;;;;;0.73;71.82;100230.31;5013047;28;20037;-52
2021/11/17 06:42:21;;;;;;;8.77;3.50;;;;;;;0.75;72.01;100240.59;5011898;28;20044;-49
2021/11/17 06:44:47;;;;;;;4.57;2.67;;;;;;;0.87;71.39;100243.31;5011059;28;20421;-52
2021/11/17 06:47:13;;;;;;;4.78;2.92;;;;;;;0.91;71.54;100239.97;5010685;28;20046;-50
2021/11/17 06:49:39;;;;;;;3.30;2.30;;;;;;;0.84;71.38;100244.13;5027304;28;20114;-49
2021/11/17 06:52:06;;;;;;;4.57;2.83;;;;;;;0.68;71.50;100233.69;5030177;28;20041;-48
2021/11/17 06:54:32;;;;;;;3.67;2.45;;;;;;;0.77;71.38;100231.25;5028817;28;20057;-49
2021/11/17 06:56:58;;;;;;;5.38;2.80;;;;;;;0.99;70.77;100245.19;5011959;28;20042;-49
2021/11/17 06:59:24;;;;;;;5.72;2.78;;;;;;;1.00;70.50;100228.97;5011026;28;20087;-49
2021/11/17 07:01:50;;;;;;;4.63;2.05;;;;;;;1.00;70.18;100229.81;5010353;28;20509;-48
2021/11/17 07:04:16;;;;;;;5.22;2.80;;;;;;;0.94;70.58;100234.03;5011084;28;20041;-50
2021/11/17 07:06:42;;;;;;;4.70;2.90;;;;;;;1.01;70.58;100244.34;5020724;28;20060;-48
2021/11/17 07:09:09;;;;;;;5.00;2.70;;;;;;;1.07;70.61;100244.44;5005280;28;20041;-50
2021/11/17 07:11:37;;;;;;;5.75;3.63;;;;;;;1.00;70.73;100229.81;5011714;28;20042;-48
2021/11/17 07:14:09;;;;;;;5.32;3.00;;;;;;;1.14;70.54;100240.25;5011298;28;20052;-50
2021/11/17 07:16:38;;;;;;;6.15;2.70;;;;;;;1.14;70.28;100248.81;5010754;28;20073;-49
2021/11/17 07:19:10;;;;;;;6.70;2.83;;;;;;;1.12;70.35;100252.16;5032108;28;20045;-52
2021/11/17 07:21:38;;;;;;;4.00;2.42;;;;;;;1.02;70.11;100228.16;5042864;28;20736;-48
2021/11/17 07:24:05;;;;;;;5.22;2.30;;;;;;;1.16;70.00;100254.78;5010017;28;20041;-53
2021/11/17 07:26:32;;;;;;;3.45;1.73;;;;;;;1.15;70.09;100255.63;5042983;28;20068;-46
2021/11/17 07:28:58;;;;;;;4.47;2.38;;;;;;;1.00;70.32;100246.88;5011165;28;20528;-47
2021/11/17 07:31:23;;;;;;;5.20;3.00;;;;;;;0.99;70.15;100240.06;5009754;28;20146;-48
2021/11/17 07:33:49;;;;;;;4.47;3.20;;;;;;;1.17;70.10;100253.94;5011223;28;20052;-49
2021/11/17 07:36:16;;;;;;;3.70;2.50;;;;;;;0.89;70.20;100228.81;5026138;28;20540;-49
2021/11/17 07:38:43;;;;;;;3.65;1.80;;;;;;;0.94;70.51;100257.06;5023135;28;20399;-48
2021/11/17 07:41:09;;;;;;;3.72;2.30;;;;;;;0.93;70.79;100261.31;5030584;28;20072;-49
2021/11/17 07:43:35;;;;;;;4.85;2.40;;;;;;;1.05;70.25;100258.91;5026500;28;20137;-46
2021/11/17 07:46:02;;;;;;;4.75;2.35;;;;;;;1.19;69.99;100253.97;5010642;28;20037;-54
2021/11/17 07:48:28;;;;;;;5.13;2.65;;;;;;;1.27;69.47;100253.22;5009749;28;20049;-51
2021/11/17 07:50:55;;;;;;;7.97;2.50;;;;;;;1.45;69.16;100262.84;5011137;28;20034;-52
2021/11/17 07:53:24;;;;;;;4.22;2.60;;;;;;;1.52;68.58;100256.06;5009696;28;20052;-46
2021/11/17 07:55:52;;;;;;;4.47;2.22;;;;;;;1.55;68.51;100261.22;5016892;28;20061;-47
2021/11/17 07:58:20;;;;;;;6.13;2.50;;;;;;;1.52;68.54;100261.19;5009577;28;20539;-49
2021/11/17 08:00:49;;;;;;;8.27;3.15;;;;;;;1.44;68.63;100263.69;5009653;28;20041;-48
2021/11/17 08:03:16;;;;;;;6.10;2.85;;;;;;;1.42;68.77;100251.66;5026127;28;20061;-47
2021/11/17 08:05:44;;;;;;;6.00;3.50;;;;;;;1.48;68.84;100252.63;5009519;28;20490;-48
2021/11/17 08:08:10;;;;;;;5.63;3.20;;;;;;;1.58;68.58;100256.13;5009264;28;20129;-47
2021/11/17 08:10:38;;;;;;;4.35;2.50;;;;;;;1.51;67.95;100257.78;5025595;28;20120;-46
2021/11/17 08:13:04;;;;;;;5.97;2.97;;;;;;;1.27;67.81;100244.69;5010579;28;20042;-50
2021/11/17 08:15:30;;;;;;;4.75;2.75;;;;;;;1.28;68.15;100261.78;5025415;28;20037;-49
2021/11/17 08:17:55;;;;;;;3.60;1.63;;;;;;;1.28;68.32;100266.88;5028731;28;20039;-50
2021/11/17 08:20:22;;;;;;;3.38;2.00;;;;;;;1.42;68.06;100247.41;5030264;28;20037;-51
2021/11/17 08:22:51;;;;;;;4.75;2.47;;;;;;;1.68;67.37;100257.94;5062030;28;20068;-51
2021/11/17 08:25:19;;;;;;;8.50;2.80;;;;;;;1.85;66.94;100263.25;5016404;28;20038;-47
2021/11/17 08:27:45;;;;;;;4.78;2.90;;;;;;;2.06;66.89;100259.19;5024190;28;20030;-52
2021/11/17 08:30:12;;;;;;;5.15;3.20;;;;;;;2.20;66.04;100259.28;5041742;28;20045;-53
2021/11/17 08:32:40;;;;;;;7.88;4.18;;;;;;;2.27;65.81;100253.38;5009823;28;20072;-50
2021/11/17 08:35:08;;;;;;;8.68;2.35;;;;;;;2.40;65.52;100254.34;5018587;28;20083;-51
2021/11/17 08:37:34;;;;;;;8.93;2.30;;;;;;;2.54;65.29;100250.16;5028527;28;20061;-52
2021/11/17 08:40:02;;;;;;;6.28;2.15;;;;;;;2.69;64.86;100244.28;5029957;28;20390;-51
2021/11/17 08:42:29;;;;;;;10.48;3.00;;;;;;;2.82;64.62;100251.22;5028539;28;20119;-53
2021/11/17 08:44:54;;;;;;;2.90;1.98;;;;;;;2.93;64.13;100252.97;5021924;28;20037;-48
2021/11/17 08:47:21;;;;;;;4.85;2.10;;;;;;;2.95;63.83;100253.84;5025185;28;20042;-52
2021/11/17 08:49:46;;;;;;;5.85;2.50;;;;;;;2.98;63.81;100251.28;5025218;28;20038;-47
2021/11/17 08:52:13;;;;;;;6.20;2.92;;;;;;;3.07;64.13;100263.34;5009888;28;20446;-51
2021/11/17 08:54:40;;;;;;;9.20;2.47;;;;;;;3.16;63.74;100259.94;5023993;28;20105;-55
2021/11/17 08:57:06;;;;;;;4.78;2.67;;;;;;;3.10;63.36;100244.50;4992233;28;20045;-49
2021/11/17 08:59:32;;;;;;;10.00;2.60;;;;;;;3.26;63.32;100256.56;5024956;28;20048;-52
2021/11/17 09:02:00;;;;;;;5.38;2.55;;;;;;;3.30;62.92;100256.56;5010073;28;20514;-51
2021/11/17 09:04:25;;;;;;;3.67;2.30;;;;;;;3.23;62.95;100242.00;5022971;28;20038;-50
2021/11/17 09:06:51;;;;;;;3.88;2.30;;;;;;;3.32;62.69;100257.44;5029488;28;20060;-49
2021/11/17 09:09:19;;;;;;;7.20;2.47;;;;;;;3.36;62.44;100263.44;5029436;28;20037;-52
2021/11/17 09:11:45;;;;;;;11.88;2.88;;;;;;;3.38;62.32;100261.75;5029335;28;20072;-49
2021/11/17 09:14:11;;;;;;;8.05;2.83;;;;;;;3.43;62.26;100257.50;5018706;28;20068;-49
2021/11/17 09:16:39;;;;;;;5.28;2.70;;;;;;;3.40;61.90;100262.63;5024957;28;20425;-49
2021/11/17 09:19:06;;;;;;;6.18;2.45;;;;;;;3.22;61.81;100236.84;5009717;28;20417;-51
2021/11/17 09:21:34;;;;;;;24.92;9.80;;;;;;;3.41;61.95;100256.63;5009663;28;20042;-51
2021/11/17 09:24:05;;;;;;;4.05;2.58;;;;;;;3.53;61.61;100253.25;5016616;28;20532;-48
2021/11/17 09:26:32;;;;;;;10.98;2.65;;;;;;;3.59;61.70;100255.84;5029392;28;20059;-48
2021/11/17 09:28:59;;;;;;;3.63;2.40;;;;;;;3.58;61.81;100249.84;5029173;28;20045;-48
2021/11/17 09:31:27;;;;;;;7.88;2.58;;;;;;;3.55;61.64;100251.53;5022175;28;20191;-50
2021/11/17 09:33:54;;;;;;;5.53;2.92;;;;;;;3.56;61.28;100246.38;5015773;28;20517;-49
2021/11/17 09:36:23;;;;;;;8.38;3.95;;;;;;;3.65;61.58;100251.56;5023082;28;20041;-51
2021/11/17 09:38:51;;;;;;;5.57;2.97;;;;;;;3.68;61.31;100248.13;5010267;28;20038;-51
2021/11/17 09:41:24;;;;;;;7.20;2.42;;;;;;;3.78;61.16;100247.28;5028251;28;20494;-54
2021/11/17 09:43:55;;;;;;;6.47;2.83;;;;;;;3.81;60.89;100252.47;5013037;28;20052;-52
2021/11/17 09:46:27;;;;;;;5.63;2.65;;;;;;;3.82;61.05;100241.34;5028372;28;20053;-49
2021/11/17 09:48:58;;;;;;;5.55;2.65;;;;;;;3.83;60.54;100250.75;5013325;28;20038;-48
2021/11/17 09:51:37;;;;;;;6.90;2.90;;;;;;;3.86;60.94;100237.91;5011923;28;20057;-48
2021/11/17 09:54:24;;;;;;;6.60;3.22;;;;;;;3.94;60.48;100227.59;5028097;28;20054;-46
2021/11/17 09:57:06;;;;;;;9.02;2.63;;;;;;;3.98;60.21;100211.34;5015891;28;20049;-49
2021/11/17 09:59:37;;;;;;;4.60;2.55;;;;;;;4.17;59.86;100229.34;5032755;28;20037;-52
2021/11/17 10:02:24;;;;;;;7.28;3.05;;;;;;;4.18;60.19;100236.22;5031514;28;20416;-50
2021/11/17 10:05:16;;;;;;;5.45;2.67;;;;;;;4.17;59.85;100226.78;5032433;28;20132;-53
2021/11/17 10:13:38;;;;;;;;;;;;;;;4.19;59.79;100214.75;5039818;28;20406;-49
2021/11/17 10:16:05;;;;;;;9.75;3.05;;;;;;;4.22;59.74;100217.34;5043252;28;19933;-48
2021/11/17 10:18:41;;;;;;;7.20;2.70;;;;;;;4.21;59.76;100217.34;5027184;28;20038;-53
2021/11/17 10:21:09;;;;;;;16.92;9.40;;;;;;;4.20;60.01;100215.63;5012245;28;20038;-50
2021/11/17 10:23:38;;;;;;;6.45;3.42;;;;;;;4.27;59.41;100212.19;5011059;28;20045;-52
2021/11/17 10:26:04;;;;;;;8.32;3.60;;;;;;;4.23;59.53;100213.06;5012295;28;20052;-49
2021/11/17 10:28:40;;;;;;;20.45;5.78;;;;;;;4.23;59.87;100215.63;5027538;28;20041;-50
2021/11/17 10:31:26;;;;;;;7.70;3.75;;;;;;;4.26;59.51;100211.34;5012237;28;20034;-50
2021/11/17 10:34:21;;;;;;;8.95;3.80;;;;;;;4.18;59.76;100207.91;5036164;28;20037;-52
2021/11/17 10:36:52;;;;;;;7.32;3.28;;;;;;;4.01;59.69;100207.03;5010535;28;20038;-46
2021/11/17 10:39:47;;;;;;;7.75;3.58;;;;;;;3.91;60.16;100212.19;5026950;28;20038;-48
2021/11/17 10:42:19;;;;;;;10.57;3.90;;;;;;;3.67;60.55;100211.28;5011697;28;20038;-50
2021/11/17 10:44:49;;;;;;;9.27;4.15;;;;;;;3.70;60.55;100207.88;5022721;28;20505;-51
2021/11/17 10:47:20;;;;;;;10.57;4.05;;;;;;;3.63;60.47;100204.41;5031399;28;20041;-51
2021/11/17 10:50:09;;;;;;;7.68;3.80;;;;;;;3.32;61.39;100218.03;5030235;28;20076;-52
2021/11/17 10:52:55;;;;;;;10.73;3.72;;;;;;;3.20;62.06;100202.56;5013403;28;20136;-51
2021/11/17 10:55:42;;;;;;;5.97;3.05;;;;;;;3.06;62.33;100204.25;5016165;28;20064;-51
2021/11/17 10:58:12;;;;;;;9.70;3.97;;;;;;;2.92;62.86;100211.91;5011764;28;20041;-53
2021/11/17 11:00:48;;;;;;;7.95;4.05;;;;;;;2.99;63.01;100204.22;5011836;28;20120;-52
2021/11/17 11:03:16;;;;;;;8.05;3.83;;;;;;;3.09;62.97;100204.28;5011666;28;20533;-48
2021/11/17 11:06:00;;;;;;;7.13;3.55;;;;;;;3.01;62.92;100201.66;5012683;28;20045;-50
2021/11/17 11:08:50;;;;;;;13.52;4.43;;;;;;;2.95;62.93;100192.22;5026850;28;20038;-47
2021/11/17 11:11:17;;;;;;;6.93;4.00;;;;;;;3.07;62.72;100201.69;5028507;28;20075;-48
2021/11/17 11:13:52;;;;;;;7.47;4.25;;;;;;;2.94;63.12;100210.16;5045943;28;20072;-51
2021/11/17 11:16:25;;;;;;;8.57;4.32;;;;;;;2.89;63.63;100194.75;5012456;28;20054;-48
2021/11/17 11:19:17;;;;;;;7.57;4.40;;;;;;;2.86;63.35;100179.34;5010106;28;20123;-50
2021/11/17 11:21:43;;;;;;;7.30;3.60;;;;;;;2.88;63.55;100190.47;5011092;28;20054;-49
2021/11/17 11:24:12;;;;;;;7.40;3.53;;;;;;;2.90;63.79;100185.34;5011413;28;20068;-49
2021/11/17 11:27:00;;;;;;;6.63;3.53;;;;;;;3.14;63.24;100192.31;5024010;28;20038;-49
2021/11/17 11:29:33;;;;;;;10.82;4.43;;;;;;;3.12;63.16;100179.44;5036139;28;20381;-50
2021/11/17 11:32:04;;;;;;;9.98;4.72;;;;;;;3.13;63.30;100182.88;5019590;28;20041;-50
2021/11/17 11:34:46;;;;;;;9.85;4.65;;;;;;;3.16;63.24;100183.72;5010733;28;20045;-48
2021/11/17 11:37:38;;;;;;;15.07;4.93;;;;;;;3.12;63.53;100176.00;5009125;28;20052;-49
2021/11/17 11:40:04;;;;;;;7.38;4.13;;;;;;;3.22;63.06;100178.63;5015065;28;20076;-52
2021/11/17 11:42:51;;;;;;;8.27;4.10;;;;;;;3.02;63.69;100187.09;5009930;28;20429;-54
2021/11/17 11:45:26;;;;;;;8.10;4.05;;;;;;;2.86;64.18;100181.91;5021811;28;20049;-48
2021/11/17 11:48:01;;;;;;;9.45;4.30;;;;;;;2.85;64.15;100182.75;5023693;28;20120;-52
2021/11/17 11:50:30;;;;;;;9.63;3.80;;;;;;;2.77;64.65;100188.72;5027538;28;20064;-50
2021/11/17 11:52:59;;;;;;;8.18;3.85;;;;;;;2.69;64.93;100191.22;5027394;28;20095;-50
2021/11/17 11:55:25;;;;;;;9.40;4.22;;;;;;;2.48;65.57;100180.84;5020226;28;20436;-47
2021/11/17 11:58:13;;;;;;;8.00;3.63;;;;;;;2.56;65.24;100180.03;5033281;28;20044;-51
2021/11/17 12:00:40;;;;;;;8.07;3.92;;;;;;;2.63;65.23;100182.63;5023533;28;20056;-50
2021/11/17 12:03:13;;;;;;;13.52;4.35;;;;;;;2.85;64.85;100200.72;5011270;28;20061;-50
2021/11/17 12:05:39;;;;;;;11.95;4.22;;;;;;;2.77;65.15;100199.84;5042448;28;20096;-46
2021/11/17 12:08:28;;;;;;;9.65;3.67;;;;;;;2.79;65.15;100199.81;5028435;28;20029;-51
2021/11/17 12:11:02;;;;;;;8.52;3.63;;;;;;;2.76;65.27;100203.25;4992522;28;20045;-48
2021/11/17 12:13:31;;;;;;;7.85;3.00;;;;;;;2.58;66.04;100194.56;5018153;28;20517;-53
2021/11/17 12:16:14;;;;;;;5.27;2.97;;;;;;;2.54;66.24;100197.13;5026008;28;20060;-51
2021/11/17 12:18:46;;;;;;;6.18;2.53;;;;;;;2.58;66.12;100190.31;5022125;28;20849;-47
2021/11/17 12:21:19;;;;;;;7.55;3.15;;;;;;;2.66;66.08;100195.50;5013257;28;20042;-50
2021/11/17 12:24:04;;;;;;;6.78;3.10;;;;;;;2.71;66.04;100202.38;5016717;28;20034;-52
2021/11/17 12:26:34;;;;;;;6.32;3.20;;;;;;;2.70;65.83;100194.66;5018617;28;20398;-50
2021/11/17 12:29:16;;;;;;;6.00;3.72;;;;;;;2.69;66.10;100196.38;5030029;28;20079;-49
2021/11/17 12:32:03;;;;;;;7.18;2.78;;;;;;;2.73;66.11;100197.22;5011008;28;20041;-50
2021/11/17 12:34:34;;;;;;;7.50;2.67;;;;;;;2.77;66.08;100194.72;5035049;28;20042;-53
2021/11/17 12:37:03;;;;;;;7.82;3.00;;;;;;;2.73;65.61;100172.41;5020897;28;20041;-50
2021/11/17 12:39:48;;;;;;;6.25;2.90;;;;;;;2.76;65.94;100198.13;5010053;28;20042;-51
2021/11/17 12:42:14;;;;;;;8.48;2.85;;;;;;;2.67;66.27;100195.47;5009796;28;20162;-51
2021/11/17 12:44:44;;;;;;;7.47;3.70;;;;;;;2.66;66.58;100195.50;5041621;28;20041;-48
2021/11/17 12:47:42;;;;;;;6.32;2.70;;;;;;;2.63;66.53;100201.44;5040332;28;20073;-49
2021/11/17 12:50:20;;;;;;;7.13;2.90;;;;;;;2.64;66.75;100199.75;5001926;28;20052;-48
2021/11/17 12:52:57;;;;;;;10.95;3.28;;;;;;;2.56;67.07;100197.97;5015008;28;20235;-48
2021/11/17 12:55:54;;;;;;;5.78;3.10;;;;;;;2.61;66.97;100198.03;4991287;28;20053;-50
2021/11/17 12:58:23;;;;;;;6.05;3.28;;;;;;;2.58;67.33;100203.13;5009451;28;20042;-50
2021/11/17 13:01:14;;;;;;;10.02;3.75;;;;;;;2.57;67.53;100198.84;5035345;28;20041;-48
2021/11/17 13:03:49;;;;;;;7.93;3.30;;;;;;;2.67;67.43;100198.03;5010207;28;20075;-49
2021/11/17 13:06:27;;;;;;;7.80;3.33;;;;;;;2.75;67.41;100200.66;5038272;28;20044;-51
2021/11/17 13:09:24;;;;;;;8.07;3.33;;;;;;;2.76;67.37;100197.25;5028953;28;20033;-47
2021/11/17 13:11:55;;;;;;;9.63;3.17;;;;;;;2.84;67.04;100196.44;5025893;28;20517;-56
2021/11/17 13:14:26;;;;;;;8.70;3.00;;;;;;;2.59;67.54;100179.19;5011358;28;20061;-53
2021/11/17 13:17:18;;;;;;;13.07;3.20;;;;;;;2.62;68.14;100194.59;5021250;28;20041;-48
2021/11/17 13:20:13;;;;;;;6.88;3.25;;;;;;;2.45;68.73;100199.66;5009712;28;20037;-48
2021/11/17 13:22:41;;;;;;;7.57;3.05;;;;;;;2.43;68.98;100195.34;5024050;28;20058;-53
2021/11/17 13:25:10;;;;;;;7.40;3.22;;;;;;;2.44;69.20;100185.09;5029764;28;20365;-51
2021/11/17 13:27:41;;;;;;;12.05;3.88;;;;;;;2.60;68.84;100196.31;5032070;28;20048;-51
2021/11/17 13:30:47;;;;;;;7.43;3.83;;;;;;;2.64;68.65;100189.47;5032405;28;20037;-48
2021/11/17 13:33:19;;;;;;;9.68;4.15;;;;;;;2.58;68.49;100190.31;5018725;28;20053;-49
2021/11/17 13:35:45;;;;;;;11.02;3.90;;;;;;;2.58;68.66;100187.75;5013518;28;20084;-51
2021/11/17 13:38:15;;;;;;;9.25;4.25;;;;;;;2.58;68.61;100187.75;5028983;28;20561;-50
2021/11/17 13:40:43;;;;;;;11.40;3.72;;;;;;;2.55;68.59;100190.28;5013501;28;20048;-50
2021/11/17 13:43:10;;;;;;;9.00;3.53;;;;;;;2.59;68.81;100186.03;5028289;28;20108;-50
2021/11/17 13:45:37;;;;;;;9.57;3.70;;;;;;;2.59;68.59;100184.31;5030018;28;20041;-52
2021/11/17 13:48:03;;;;;;;9.70;4.03;;;;;;;2.62;68.76;100181.75;5033370;28;20061;-51
2021/11/17 13:50:34;;;;;;;12.00;4.25;;;;;;;2.64;68.47;100181.78;5033069;28;20037;-45
2021/11/17 13:53:03;;;;;;;8.10;3.60;;;;;;;2.58;69.06;100174.91;5032992;28;20447;-50
2021/11/17 13:55:32;;;;;;;9.43;3.30;;;;;;;2.68;68.46;100180.94;5023972;28;20050;-51
2021/11/17 13:57:58;;;;;;;9.55;3.80;;;;;;;2.73;68.45;100181.81;5015218;28;20080;-51
2021/11/17 14:00:26;;;;;;;7.88;3.80;;;;;;;2.76;68.20;100184.44;5031565;28;20037;-47
2021/11/17 14:02:55;;;;;;;11.70;4.47;;;;;;;2.64;68.26;100168.94;5015142;28;20034;-48
2021/11/17 14:05:22;;;;;;;9.77;4.28;;;;;;;2.74;68.23;100179.28;5032832;28;20123;-51
2021/11/17 14:07:49;;;;;;;12.40;4.32;;;;;;;2.54;67.94;100145.81;5013514;28;20118;-49
2021/11/17 14:10:19;;;;;;;8.93;4.60;;;;;;;2.63;68.17;100162.94;5028372;28;20113;-54
2021/11/17 14:12:46;;;;;;;11.55;4.18;;;;;;;2.72;68.25;100180.13;5013172;28;20517;-51
2021/11/17 14:15:12;;;;;;;11.48;4.00;;;;;;;2.72;68.34;100180.97;5011696;28;20041;-50
2021/11/17 14:17:39;;;;;;;7.35;4.00;;;;;;;2.77;67.85;100158.78;5014139;28;20133;-52
2021/11/17 14:20:06;;;;;;;8.32;4.63;;;;;;;2.76;68.01;100179.28;5012903;28;20092;-50
2021/11/17 14:22:33;;;;;;;11.40;4.72;;;;;;;2.76;67.92;100172.44;5011335;28;20540;-49
2021/11/17 14:25:07;;;;;;;11.80;3.97;;;;;;;2.73;68.13;100180.13;5011366;28;20049;-49
2021/11/17 14:27:37;;;;;;;11.55;5.00;;;;;;;2.67;68.29;100177.50;5026955;28;20501;-51
2021/11/17 14:30:12;;;;;;;11.38;4.60;;;;;;;2.70;68.27;100171.56;5011518;28;20076;-53
2021/11/17 14:32:41;;;;;;;11.68;4.63;;;;;;;2.71;68.01;100170.72;5013340;28;20430;-50
2021/11/17 14:35:09;;;;;;;10.10;4.10;;;;;;;2.73;68.17;100166.41;5038201;28;20041;-49
2021/11/17 14:37:35;;;;;;;8.35;4.00;;;;;;;2.69;68.27;100167.25;4996849;28;20049;-49
2021/11/17 14:40:03;;;;;;;11.27;4.60;;;;;;;2.68;68.60;100175.81;5042608;28;20584;-47